sensor_id;sensor_type;location;lat;lon;timestamp;P1;durP1;ratioP1;P2;durP2;ratioP2
61527;SDS011;47395;42.032;-8.634;2024-03-17T00:00:21;10.95;;;6.05;;
61527;SDS011;47395;42.032;-8.634;2024-03-17T00:02:23;12.48;;;7.03;;
61527;SDS011;47395;42.032;-8.634;2024-03-17T00:04:24;10.70;;;6.50;;
61527;SDS011;47395;42.032;-8.634;2024-03-17T00:06:24;12.85;;;6.13;;
61527;SDS011;47395;42.032;-8.634;2024-03-17T00:08:25;15.27;;;7.15;;
61527;SDS011;47395;42.032;-8.634;2024-03-17T00:10:27;11.98;;;6.05;;
61527;SDS011;47395;42.032;-8.634;2024-03-17T00:12:27;9.00;;;5.22;;
61527;SDS011;47395;42.032;-8.634;2024-03-17T00:14:28;10.23;;;6.30;;
61527;SDS011;47395;42.032;-8.634;2024-03-17T00:16:29;15.40;;;6.68;;
61527;SDS011;47395;42.032;-8.634;2024-03-17T00:18:30;10.10;;;5.57;;
61527;SDS011;47395;42.032;-8.634;2024-03-17T00:20:31;12.85;;;5.85;;
61527;SDS011;47395;42.032;-8.634;2024-03-17T00:22:32;12.32;;;6.43;;
61527;SDS011;47395;42.032;-8.634;2024-03-17T00:24:37;11.38;;;5.72;;
61527;SDS011;47395;42.032;-8.634;2024-03-17T00:26:38;10.43;;;7.35;;
61527;SDS011;47395;42.032;-8.634;2024-03-17T00:28:39;14.07;;;6.65;;
61527;SDS011;47395;42.032;-8.634;2024-03-17T00:30:40;15.15;;;6.28;;
61527;SDS011;47395;42.032;-8.634;2024-03-17T00:32:41;16.38;;;7.25;;
61527;SDS011;47395;42.032;-8.634;2024-03-17T00:34:42;14.23;;;6.78;;
61527;SDS011;47395;42.032;-8.634;2024-03-17T00:36:43;18.40;;;7.82;;
61527;SDS011;47395;42.032;-8.634;2024-03-17T00:38:44;10.00;;;6.68;;
61527;SDS011;47395;42.032;-8.634;2024-03-17T00:40:45;20.52;;;7.80;;
61527;SDS011;47395;42.032;-8.634;2024-03-17T00:42:47;11.05;;;6.85;;
61527;SDS011;47395;42.032;-8.634;2024-03-17T00:44:49;14.25;;;7.57;;
61527;SDS011;47395;42.032;-8.634;2024-03-17T00:46:50;20.25;;;7.47;;
61527;SDS011;47395;42.032;-8.634;2024-03-17T00:48:51;11.45;;;7.35;;
61527;SDS011;47395;42.032;-8.634;2024-03-17T00:50:55;15.18;;;7.50;;
61527;SDS011;47395;42.032;-8.634;2024-03-17T00:52:56;17.58;;;8.35;;
61527;SDS011;47395;42.032;-8.634;2024-03-17T00:54:57;14.95;;;8.60;;
61527;SDS011;47395;42.032;-8.634;2024-03-17T00:56:58;17.50;;;7.97;;
61527;SDS011;47395;42.032;-8.634;2024-03-17T00:58:59;22.73;;;8.93;;
61527;SDS011;47395;42.032;-8.634;2024-03-17T01:01:00;25.65;;;9.13;;
61527;SDS011;47395;42.032;-8.634;2024-03-17T01:03:01;19.67;;;9.00;;
61527;SDS011;47395;42.032;-8.634;2024-03-17T01:05:02;20.20;;;8.93;;
61527;SDS011;47395;42.032;-8.634;2024-03-17T01:07:05;23.33;;;9.52;;
61527;SDS011;47395;42.032;-8.634;2024-03-17T01:09:07;28.77;;;10.93;;
61527;SDS011;47395;42.032;-8.634;2024-03-17T01:11:13;27.77;;;10.57;;
61527;SDS011;47395;42.032;-8.634;2024-03-17T01:13:15;26.38;;;10.18;;
61527;SDS011;47395;42.032;-8.634;2024-03-17T01:15:16;21.08;;;10.68;;
61527;SDS011;47395;42.032;-8.634;2024-03-17T01:17:17;24.77;;;10.48;;
61527;SDS011;47395;42.032;-8.634;2024-03-17T01:19:19;18.50;;;9.27;;
61527;SDS011;47395;42.032;-8.634;2024-03-17T01:21:20;19.00;;;8.75;;
61527;SDS011;47395;42.032;-8.634;2024-03-17T01:23:21;19.65;;;9.68;;
61527;SDS011;47395;42.032;-8.634;2024-03-17T01:25:22;24.33;;;10.48;;
61527;SDS011;47395;42.032;-8.634;2024-03-17T01:27:25;28.25;;;10.02;;
61527;SDS011;47395;42.032;-8.634;2024-03-17T01:29:26;21.67;;;10.48;;
61527;SDS011;47395;42.032;-8.634;2024-03-17T01:31:29;20.70;;;10.73;;
61527;SDS011;47395;42.032;-8.634;2024-03-17T01:33:30;21.40;;;10.90;;
61527;SDS011;47395;42.032;-8.634;2024-03-17T01:35:31;23.42;;;11.60;;
61527;SDS011;47395;42.032;-8.634;2024-03-17T01:37:32;28.30;;;11.25;;
61527;SDS011;47395;42.032;-8.634;2024-03-17T01:39:33;18.38;;;10.30;;
61527;SDS011;47395;42.032;-8.634;2024-03-17T01:41:34;26.60;;;10.88;;
61527;SDS011;47395;42.032;-8.634;2024-03-17T01:43:35;25.50;;;11.10;;
61527;SDS011;47395;42.032;-8.634;2024-03-17T01:45:36;26.40;;;11.82;;
61527;SDS011;47395;42.032;-8.634;2024-03-17T01:47:37;25.38;;;12.02;;
61527;SDS011;47395;42.032;-8.634;2024-03-17T01:49:38;25.73;;;11.85;;
61527;SDS011;47395;42.032;-8.634;2024-03-17T01:51:39;23.48;;;11.98;;
61527;SDS011;47395;42.032;-8.634;2024-03-17T01:53:41;23.30;;;11.63;;
61527;SDS011;47395;42.032;-8.634;2024-03-17T01:55:43;22.67;;;11.10;;
61527;SDS011;47395;42.032;-8.634;2024-03-17T01:57:46;28.75;;;12.00;;
61527;SDS011;47395;42.032;-8.634;2024-03-17T01:59:48;20.83;;;11.13;;
61527;SDS011;47395;42.032;-8.634;2024-03-17T02:01:49;18.85;;;11.32;;
61527;SDS011;47395;42.032;-8.634;2024-03-17T02:03:50;23.50;;;11.23;;
61527;SDS011;47395;42.032;-8.634;2024-03-17T02:05:51;25.48;;;10.63;;
61527;SDS011;47395;42.032;-8.634;2024-03-17T02:07:52;28.60;;;10.88;;
61527;SDS011;47395;42.032;-8.634;2024-03-17T02:09:53;20.60;;;10.13;;
61527;SDS011;47395;42.032;-8.634;2024-03-17T02:11:56;22.08;;;10.77;;
61527;SDS011;47395;42.032;-8.634;2024-03-17T02:13:58;20.88;;;11.00;;
61527;SDS011;47395;42.032;-8.634;2024-03-17T02:16:00;27.77;;;11.05;;
61527;SDS011;47395;42.032;-8.634;2024-03-17T02:18:01;24.15;;;11.27;;
61527;SDS011;47395;42.032;-8.634;2024-03-17T02:20:02;29.13;;;11.55;;
61527;SDS011;47395;42.032;-8.634;2024-03-17T02:22:14;19.92;;;11.60;;
61527;SDS011;47395;42.032;-8.634;2024-03-17T02:24:17;19.55;;;11.25;;
61527;SDS011;47395;42.032;-8.634;2024-03-17T02:26:18;19.95;;;10.35;;
61527;SDS011;47395;42.032;-8.634;2024-03-17T02:28:19;24.33;;;11.23;;
61527;SDS011;47395;42.032;-8.634;2024-03-17T02:30:20;18.63;;;11.18;;
61527;SDS011;47395;42.032;-8.634;2024-03-17T02:32:21;25.10;;;12.55;;
61527;SDS011;47395;42.032;-8.634;2024-03-17T02:34:23;21.70;;;11.20;;
61527;SDS011;47395;42.032;-8.634;2024-03-17T02:36:24;19.98;;;12.25;;
61527;SDS011;47395;42.032;-8.634;2024-03-17T02:38:25;26.75;;;12.25;;
61527;SDS011;47395;42.032;-8.634;2024-03-17T02:40:44;20.80;;;11.95;;
61527;SDS011;47395;42.032;-8.634;2024-03-17T02:42:45;26.50;;;11.40;;
61527;SDS011;47395;42.032;-8.634;2024-03-17T02:44:46;19.77;;;11.00;;
61527;SDS011;47395;42.032;-8.634;2024-03-17T02:46:47;24.13;;;10.35;;
61527;SDS011;47395;42.032;-8.634;2024-03-17T02:48:50;19.83;;;11.05;;
61527;SDS011;47395;42.032;-8.634;2024-03-17T02:50:52;16.38;;;10.13;;
61527;SDS011;47395;42.032;-8.634;2024-03-17T02:52:53;15.85;;;9.63;;
61527;SDS011;47395;42.032;-8.634;2024-03-17T02:54:54;20.10;;;10.85;;
61527;SDS011;47395;42.032;-8.634;2024-03-17T02:56:55;17.10;;;9.82;;
61527;SDS011;47395;42.032;-8.634;2024-03-17T02:58:56;18.27;;;9.80;;
61527;SDS011;47395;42.032;-8.634;2024-03-17T03:00:57;15.05;;;9.38;;
61527;SDS011;47395;42.032;-8.634;2024-03-17T03:02:58;23.00;;;9.38;;
61527;SDS011;47395;42.032;-8.634;2024-03-17T03:04:59;23.25;;;9.65;;
61527;SDS011;47395;42.032;-8.634;2024-03-17T03:07:00;18.77;;;8.77;;
61527;SDS011;47395;42.032;-8.634;2024-03-17T03:09:01;15.77;;;9.30;;
61527;SDS011;47395;42.032;-8.634;2024-03-17T03:11:03;16.88;;;9.85;;
61527;SDS011;47395;42.032;-8.634;2024-03-17T03:13:06;21.02;;;9.43;;
61527;SDS011;47395;42.032;-8.634;2024-03-17T03:15:07;22.08;;;9.18;;
61527;SDS011;47395;42.032;-8.634;2024-03-17T03:17:09;15.55;;;8.45;;
61527;SDS011;47395;42.032;-8.634;2024-03-17T03:19:10;18.92;;;8.55;;
61527;SDS011;47395;42.032;-8.634;2024-03-17T03:21:11;13.18;;;8.07;;
61527;SDS011;47395;42.032;-8.634;2024-03-17T03:23:15;14.55;;;8.98;;
61527;SDS011;47395;42.032;-8.634;2024-03-17T03:25:16;18.27;;;9.30;;
61527;SDS011;47395;42.032;-8.634;2024-03-17T03:27:17;18.65;;;8.80;;
61527;SDS011;47395;42.032;-8.634;2024-03-17T03:29:18;18.33;;;8.60;;
61527;SDS011;47395;42.032;-8.634;2024-03-17T03:31:19;14.07;;;8.23;;
61527;SDS011;47395;42.032;-8.634;2024-03-17T03:33:21;15.38;;;8.75;;
61527;SDS011;47395;42.032;-8.634;2024-03-17T03:35:22;15.98;;;9.27;;
61527;SDS011;47395;42.032;-8.634;2024-03-17T03:37:23;18.77;;;8.93;;
61527;SDS011;47395;42.032;-8.634;2024-03-17T03:39:24;15.00;;;8.63;;
61527;SDS011;47395;42.032;-8.634;2024-03-17T03:41:31;16.95;;;8.68;;
61527;SDS011;47395;42.032;-8.634;2024-03-17T03:43:35;13.48;;;9.07;;
61527;SDS011;47395;42.032;-8.634;2024-03-17T03:45:36;14.00;;;9.32;;
61527;SDS011;47395;42.032;-8.634;2024-03-17T03:47:41;11.70;;;8.18;;
61527;SDS011;47395;42.032;-8.634;2024-03-17T03:49:43;13.23;;;8.65;;
61527;SDS011;47395;42.032;-8.634;2024-03-17T03:51:45;14.00;;;8.68;;
61527;SDS011;47395;42.032;-8.634;2024-03-17T03:53:46;16.85;;;8.93;;
61527;SDS011;47395;42.032;-8.634;2024-03-17T03:55:47;11.98;;;8.35;;
61527;SDS011;47395;42.032;-8.634;2024-03-17T03:57:49;11.15;;;8.23;;
61527;SDS011;47395;42.032;-8.634;2024-03-17T03:59:52;17.80;;;9.15;;
61527;SDS011;47395;42.032;-8.634;2024-03-17T04:01:53;15.38;;;8.18;;
61527;SDS011;47395;42.032;-8.634;2024-03-17T04:03:54;20.30;;;8.38;;
61527;SDS011;47395;42.032;-8.634;2024-03-17T04:06:08;9.65;;;7.85;;
61527;SDS011;47395;42.032;-8.634;2024-03-17T04:08:11;14.52;;;8.52;;
61527;SDS011;47395;42.032;-8.634;2024-03-17T04:10:12;10.88;;;8.70;;
61527;SDS011;47395;42.032;-8.634;2024-03-17T04:12:14;15.18;;;7.95;;
61527;SDS011;47395;42.032;-8.634;2024-03-17T04:14:15;11.15;;;8.73;;
61527;SDS011;47395;42.032;-8.634;2024-03-17T04:16:16;18.92;;;9.25;;
61527;SDS011;47395;42.032;-8.634;2024-03-17T04:18:18;17.98;;;10.13;;
61527;SDS011;47395;42.032;-8.634;2024-03-17T04:20:20;11.82;;;10.18;;
61527;SDS011;47395;42.032;-8.634;2024-03-17T04:22:21;22.20;;;9.73;;
61527;SDS011;47395;42.032;-8.634;2024-03-17T04:24:22;14.23;;;10.13;;
61527;SDS011;47395;42.032;-8.634;2024-03-17T04:26:24;12.48;;;9.57;;
61527;SDS011;47395;42.032;-8.634;2024-03-17T04:28:26;11.63;;;9.68;;
61527;SDS011;47395;42.032;-8.634;2024-03-17T04:30:28;17.55;;;11.27;;
61527;SDS011;47395;42.032;-8.634;2024-03-17T04:32:29;22.75;;;13.07;;
61527;SDS011;47395;42.032;-8.634;2024-03-17T04:34:31;22.05;;;11.57;;
61527;SDS011;47395;42.032;-8.634;2024-03-17T04:36:32;14.48;;;10.85;;
61527;SDS011;47395;42.032;-8.634;2024-03-17T04:38:33;14.60;;;9.77;;
61527;SDS011;47395;42.032;-8.634;2024-03-17T04:40:43;13.55;;;9.95;;
61527;SDS011;47395;42.032;-8.634;2024-03-17T04:42:44;14.17;;;9.23;;
61527;SDS011;47395;42.032;-8.634;2024-03-17T04:44:45;11.20;;;8.75;;
61527;SDS011;47395;42.032;-8.634;2024-03-17T04:46:47;13.45;;;9.07;;
61527;SDS011;47395;42.032;-8.634;2024-03-17T04:48:47;13.65;;;9.23;;
61527;SDS011;47395;42.032;-8.634;2024-03-17T04:50:49;15.35;;;9.55;;
61527;SDS011;47395;42.032;-8.634;2024-03-17T04:52:50;14.43;;;9.10;;
61527;SDS011;47395;42.032;-8.634;2024-03-17T04:54:50;12.55;;;9.32;;
61527;SDS011;47395;42.032;-8.634;2024-03-17T04:56:52;16.45;;;9.43;;
61527;SDS011;47395;42.032;-8.634;2024-03-17T04:58:53;16.17;;;9.48;;
61527;SDS011;47395;42.032;-8.634;2024-03-17T05:00:53;16.00;;;9.35;;
61527;SDS011;47395;42.032;-8.634;2024-03-17T05:05:05;10.65;;;9.45;;
61527;SDS011;47395;42.032;-8.634;2024-03-17T05:07:08;13.80;;;9.80;;
61527;SDS011;47395;42.032;-8.634;2024-03-17T05:09:09;17.65;;;10.40;;
61527;SDS011;47395;42.032;-8.634;2024-03-17T05:11:13;19.98;;;9.98;;
61527;SDS011;47395;42.032;-8.634;2024-03-17T05:13:16;17.23;;;9.95;;
61527;SDS011;47395;42.032;-8.634;2024-03-17T05:15:17;10.73;;;9.75;;
61527;SDS011;47395;42.032;-8.634;2024-03-17T05:17:18;11.82;;;9.52;;
61527;SDS011;47395;42.032;-8.634;2024-03-17T05:19:19;15.07;;;10.95;;
61527;SDS011;47395;42.032;-8.634;2024-03-17T05:21:20;15.50;;;10.43;;
61527;SDS011;47395;42.032;-8.634;2024-03-17T05:23:22;13.60;;;10.48;;
61527;SDS011;47395;42.032;-8.634;2024-03-17T05:25:23;15.57;;;10.05;;
61527;SDS011;47395;42.032;-8.634;2024-03-17T05:27:24;15.15;;;10.13;;
61527;SDS011;47395;42.032;-8.634;2024-03-17T05:29:25;15.15;;;10.52;;
61527;SDS011;47395;42.032;-8.634;2024-03-17T05:31:25;15.75;;;10.85;;
61527;SDS011;47395;42.032;-8.634;2024-03-17T05:33:26;16.15;;;11.02;;
61527;SDS011;47395;42.032;-8.634;2024-03-17T05:35:27;17.67;;;10.48;;
61527;SDS011;47395;42.032;-8.634;2024-03-17T05:37:28;12.43;;;9.38;;
61527;SDS011;47395;42.032;-8.634;2024-03-17T05:39:31;16.88;;;10.15;;
61527;SDS011;47395;42.032;-8.634;2024-03-17T05:41:32;13.45;;;9.98;;
61527;SDS011;47395;42.032;-8.634;2024-03-17T05:43:33;18.42;;;11.05;;
61527;SDS011;47395;42.032;-8.634;2024-03-17T05:45:38;12.70;;;10.50;;
61527;SDS011;47395;42.032;-8.634;2024-03-17T05:47:39;14.20;;;10.88;;
61527;SDS011;47395;42.032;-8.634;2024-03-17T05:49:41;16.30;;;11.65;;
61527;SDS011;47395;42.032;-8.634;2024-03-17T05:51:42;16.67;;;10.60;;
61527;SDS011;47395;42.032;-8.634;2024-03-17T05:53:43;11.65;;;10.43;;
61527;SDS011;47395;42.032;-8.634;2024-03-17T05:55:44;13.95;;;10.30;;
61527;SDS011;47395;42.032;-8.634;2024-03-17T05:57:45;14.07;;;10.27;;
61527;SDS011;47395;42.032;-8.634;2024-03-17T05:59:47;20.33;;;10.98;;
61527;SDS011;47395;42.032;-8.634;2024-03-17T06:01:47;12.13;;;9.50;;
61527;SDS011;47395;42.032;-8.634;2024-03-17T06:03:48;17.73;;;9.80;;
61527;SDS011;47395;42.032;-8.634;2024-03-17T06:05:49;14.90;;;10.82;;
61527;SDS011;47395;42.032;-8.634;2024-03-17T06:07:50;17.83;;;11.38;;
61527;SDS011;47395;42.032;-8.634;2024-03-17T06:09:51;35.95;;;10.85;;
61527;SDS011;47395;42.032;-8.634;2024-03-17T06:11:52;18.05;;;11.05;;
61527;SDS011;47395;42.032;-8.634;2024-03-17T06:13:53;17.42;;;10.98;;
61527;SDS011;47395;42.032;-8.634;2024-03-17T06:15:54;12.15;;;10.35;;
61527;SDS011;47395;42.032;-8.634;2024-03-17T06:18:00;15.40;;;11.20;;
61527;SDS011;47395;42.032;-8.634;2024-03-17T06:20:04;12.80;;;10.15;;
61527;SDS011;47395;42.032;-8.634;2024-03-17T06:22:06;13.90;;;10.25;;
61527;SDS011;47395;42.032;-8.634;2024-03-17T06:24:06;13.88;;;10.38;;
61527;SDS011;47395;42.032;-8.634;2024-03-17T06:26:09;15.75;;;10.95;;
61527;SDS011;47395;42.032;-8.634;2024-03-17T06:28:14;11.02;;;9.93;;
61527;SDS011;47395;42.032;-8.634;2024-03-17T06:30:17;13.00;;;9.88;;
61527;SDS011;47395;42.032;-8.634;2024-03-17T06:32:19;13.50;;;9.52;;
61527;SDS011;47395;42.032;-8.634;2024-03-17T06:34:20;14.30;;;10.23;;
61527;SDS011;47395;42.032;-8.634;2024-03-17T06:36:21;12.63;;;10.02;;
61527;SDS011;47395;42.032;-8.634;2024-03-17T06:38:22;13.98;;;10.23;;
61527;SDS011;47395;42.032;-8.634;2024-03-17T06:40:23;11.50;;;9.65;;
61527;SDS011;47395;42.032;-8.634;2024-03-17T06:42:23;12.45;;;9.70;;
61527;SDS011;47395;42.032;-8.634;2024-03-17T06:44:24;11.63;;;10.18;;
61527;SDS011;47395;42.032;-8.634;2024-03-17T06:46:30;14.52;;;9.52;;
61527;SDS011;47395;42.032;-8.634;2024-03-17T06:48:30;12.15;;;10.25;;
61527;SDS011;47395;42.032;-8.634;2024-03-17T06:50:31;15.93;;;9.55;;
61527;SDS011;47395;42.032;-8.634;2024-03-17T06:52:32;15.63;;;10.93;;
61527;SDS011;47395;42.032;-8.634;2024-03-17T06:54:33;16.77;;;11.10;;
61527;SDS011;47395;42.032;-8.634;2024-03-17T06:56:34;16.75;;;11.60;;
61527;SDS011;47395;42.032;-8.634;2024-03-17T06:58:36;22.02;;;15.65;;
61527;SDS011;47395;42.032;-8.634;2024-03-17T07:00:36;18.00;;;13.93;;
61527;SDS011;47395;42.032;-8.634;2024-03-17T07:02:37;15.50;;;12.07;;
61527;SDS011;47395;42.032;-8.634;2024-03-17T07:04:39;16.85;;;11.18;;
61527;SDS011;47395;42.032;-8.634;2024-03-17T07:06:40;13.77;;;10.30;;
61527;SDS011;47395;42.032;-8.634;2024-03-17T07:08:41;14.07;;;11.18;;
61527;SDS011;47395;42.032;-8.634;2024-03-17T07:10:42;11.80;;;10.48;;
61527;SDS011;47395;42.032;-8.634;2024-03-17T07:12:43;14.98;;;11.38;;
61527;SDS011;47395;42.032;-8.634;2024-03-17T07:14:44;24.83;;;14.35;;
61527;SDS011;47395;42.032;-8.634;2024-03-17T07:16:45;56.38;;;12.93;;
61527;SDS011;47395;42.032;-8.634;2024-03-17T07:18:46;52.65;;;11.25;;
61527;SDS011;47395;42.032;-8.634;2024-03-17T07:20:47;55.70;;;8.88;;
61527;SDS011;47395;42.032;-8.634;2024-03-17T07:22:48;35.35;;;7.97;;
61527;SDS011;47395;42.032;-8.634;2024-03-17T07:24:50;27.40;;;8.50;;
61527;SDS011;47395;42.032;-8.634;2024-03-17T07:26:55;13.00;;;9.02;;
61527;SDS011;47395;42.032;-8.634;2024-03-17T07:28:56;76.82;;;8.48;;
61527;SDS011;47395;42.032;-8.634;2024-03-17T07:30:58;9.70;;;7.13;;
61527;SDS011;47395;42.032;-8.634;2024-03-17T07:33:02;17.20;;;8.45;;
61527;SDS011;47395;42.032;-8.634;2024-03-17T07:35:04;50.20;;;9.50;;
61527;SDS011;47395;42.032;-8.634;2024-03-17T07:37:05;63.28;;;7.90;;
61527;SDS011;47395;42.032;-8.634;2024-03-17T07:39:06;56.42;;;6.82;;
61527;SDS011;47395;42.032;-8.634;2024-03-17T07:41:09;22.38;;;5.45;;
61527;SDS011;47395;42.032;-8.634;2024-03-17T07:43:10;70.15;;;6.45;;
61527;SDS011;47395;42.032;-8.634;2024-03-17T07:45:12;65.50;;;6.32;;
61527;SDS011;47395;42.032;-8.634;2024-03-17T07:47:13;17.70;;;5.85;;
61527;SDS011;47395;42.032;-8.634;2024-03-17T07:49:14;59.10;;;4.55;;
61527;SDS011;47395;42.032;-8.634;2024-03-17T07:51:16;10.88;;;4.35;;
61527;SDS011;47395;42.032;-8.634;2024-03-17T07:53:17;33.13;;;4.40;;
61527;SDS011;47395;42.032;-8.634;2024-03-17T07:55:18;5.18;;;3.72;;
61527;SDS011;47395;42.032;-8.634;2024-03-17T07:57:19;19.45;;;4.63;;
61527;SDS011;47395;42.032;-8.634;2024-03-17T07:59:20;16.55;;;4.40;;
61527;SDS011;47395;42.032;-8.634;2024-03-17T08:01:21;4.45;;;4.13;;
61527;SDS011;47395;42.032;-8.634;2024-03-17T08:03:22;4.47;;;4.18;;
61527;SDS011;47395;42.032;-8.634;2024-03-17T08:05:24;5.88;;;3.35;;
61527;SDS011;47395;42.032;-8.634;2024-03-17T08:07:24;28.17;;;4.50;;
61527;SDS011;47395;42.032;-8.634;2024-03-17T08:09:25;4.28;;;4.07;;
61527;SDS011;47395;42.032;-8.634;2024-03-17T08:11:27;4.30;;;4.00;;
61527;SDS011;47395;42.032;-8.634;2024-03-17T08:13:28;9.50;;;4.88;;
61527;SDS011;47395;42.032;-8.634;2024-03-17T08:15:34;16.17;;;6.47;;
61527;SDS011;47395;42.032;-8.634;2024-03-17T08:17:35;12.90;;;6.20;;
61527;SDS011;47395;42.032;-8.634;2024-03-17T08:19:36;34.13;;;10.35;;
61527;SDS011;47395;42.032;-8.634;2024-03-17T08:21:39;11.07;;;9.85;;
61527;SDS011;47395;42.032;-8.634;2024-03-17T08:23:40;13.10;;;11.63;;
61527;SDS011;47395;42.032;-8.634;2024-03-17T08:25:52;19.63;;;16.95;;
61527;SDS011;47395;42.032;-8.634;2024-03-17T08:27:54;33.67;;;24.17;;
61527;SDS011;47395;42.032;-8.634;2024-03-17T08:29:55;33.88;;;26.65;;
61527;SDS011;47395;42.032;-8.634;2024-03-17T08:31:56;29.65;;;25.77;;
61527;SDS011;47395;42.032;-8.634;2024-03-17T08:33:57;21.77;;;19.25;;
61527;SDS011;47395;42.032;-8.634;2024-03-17T08:35:59;19.83;;;17.70;;
61527;SDS011;47395;42.032;-8.634;2024-03-17T08:38:04;11.25;;;10.20;;
61527;SDS011;47395;42.032;-8.634;2024-03-17T08:40:06;9.88;;;8.10;;
61527;SDS011;47395;42.032;-8.634;2024-03-17T08:42:07;18.23;;;11.68;;
61527;SDS011;47395;42.032;-8.634;2024-03-17T08:44:08;9.68;;;8.70;;
61527;SDS011;47395;42.032;-8.634;2024-03-17T08:46:10;11.98;;;7.30;;
61527;SDS011;47395;42.032;-8.634;2024-03-17T08:48:12;8.25;;;7.30;;
61527;SDS011;47395;42.032;-8.634;2024-03-17T08:50:13;9.55;;;8.10;;
61527;SDS011;47395;42.032;-8.634;2024-03-17T08:52:15;13.48;;;8.23;;
61527;SDS011;47395;42.032;-8.634;2024-03-17T08:54:16;8.43;;;7.68;;
61527;SDS011;47395;42.032;-8.634;2024-03-17T08:56:16;12.50;;;9.18;;
61527;SDS011;47395;42.032;-8.634;2024-03-17T08:58:18;9.18;;;8.38;;
61527;SDS011;47395;42.032;-8.634;2024-03-17T09:00:19;24.73;;;17.70;;
61527;SDS011;47395;42.032;-8.634;2024-03-17T09:02:20;14.93;;;12.60;;
61527;SDS011;47395;42.032;-8.634;2024-03-17T09:04:24;10.32;;;9.27;;
61527;SDS011;47395;42.032;-8.634;2024-03-17T09:06:25;10.88;;;9.00;;
61527;SDS011;47395;42.032;-8.634;2024-03-17T09:08:30;10.48;;;8.95;;
61527;SDS011;47395;42.032;-8.634;2024-03-17T09:10:38;11.05;;;8.40;;
61527;SDS011;47395;42.032;-8.634;2024-03-17T09:12:42;8.70;;;7.82;;
61527;SDS011;47395;42.032;-8.634;2024-03-17T09:14:46;12.15;;;9.02;;
61527;SDS011;47395;42.032;-8.634;2024-03-17T09:16:48;20.08;;;14.13;;
61527;SDS011;47395;42.032;-8.634;2024-03-17T09:18:49;26.02;;;18.00;;
61527;SDS011;47395;42.032;-8.634;2024-03-17T09:20:59;21.42;;;15.30;;
61527;SDS011;47395;42.032;-8.634;2024-03-17T09:23:01;25.08;;;15.95;;
61527;SDS011;47395;42.032;-8.634;2024-03-17T09:25:02;17.45;;;12.02;;
61527;SDS011;47395;42.032;-8.634;2024-03-17T09:27:07;16.27;;;13.20;;
61527;SDS011;47395;42.032;-8.634;2024-03-17T09:29:09;13.68;;;12.23;;
61527;SDS011;47395;42.032;-8.634;2024-03-17T09:31:11;18.65;;;13.85;;
61527;SDS011;47395;42.032;-8.634;2024-03-17T09:33:12;20.02;;;12.32;;
61527;SDS011;47395;42.032;-8.634;2024-03-17T09:35:13;15.55;;;13.00;;
61527;SDS011;47395;42.032;-8.634;2024-03-17T09:37:14;17.48;;;14.40;;
61527;SDS011;47395;42.032;-8.634;2024-03-17T09:39:16;14.88;;;11.18;;
61527;SDS011;47395;42.032;-8.634;2024-03-17T09:41:20;14.27;;;11.95;;
61527;SDS011;47395;42.032;-8.634;2024-03-17T09:43:22;13.98;;;11.43;;
61527;SDS011;47395;42.032;-8.634;2024-03-17T09:45:25;14.68;;;10.05;;
61527;SDS011;47395;42.032;-8.634;2024-03-17T09:47:29;15.65;;;11.77;;
61527;SDS011;47395;42.032;-8.634;2024-03-17T09:49:30;14.63;;;11.18;;
61527;SDS011;47395;42.032;-8.634;2024-03-17T09:51:31;39.17;;;22.50;;
61527;SDS011;47395;42.032;-8.634;2024-03-17T09:53:33;25.33;;;15.77;;
61527;SDS011;47395;42.032;-8.634;2024-03-17T09:55:35;17.13;;;12.82;;
61527;SDS011;47395;42.032;-8.634;2024-03-17T09:57:36;16.02;;;13.38;;
61527;SDS011;47395;42.032;-8.634;2024-03-17T09:59:37;14.73;;;11.52;;
61527;SDS011;47395;42.032;-8.634;2024-03-17T10:01:38;18.25;;;12.73;;
61527;SDS011;47395;42.032;-8.634;2024-03-17T10:03:43;15.63;;;11.07;;
61527;SDS011;47395;42.032;-8.634;2024-03-17T10:05:59;19.35;;;12.25;;
61527;SDS011;47395;42.032;-8.634;2024-03-17T10:08:00;14.20;;;10.93;;
61527;SDS011;47395;42.032;-8.634;2024-03-17T10:10:12;14.07;;;10.25;;
61527;SDS011;47395;42.032;-8.634;2024-03-17T10:12:26;17.02;;;12.07;;
61527;SDS011;47395;42.032;-8.634;2024-03-17T10:14:28;17.10;;;11.70;;
61527;SDS011;47395;42.032;-8.634;2024-03-17T10:16:29;13.52;;;10.60;;
61527;SDS011;47395;42.032;-8.634;2024-03-17T10:18:32;13.10;;;11.25;;
61527;SDS011;47395;42.032;-8.634;2024-03-17T10:20:33;13.13;;;10.15;;
61527;SDS011;47395;42.032;-8.634;2024-03-17T10:22:34;11.02;;;8.95;;
61527;SDS011;47395;42.032;-8.634;2024-03-17T10:24:35;24.80;;;14.15;;
61527;SDS011;47395;42.032;-8.634;2024-03-17T10:26:37;16.48;;;11.63;;
61527;SDS011;47395;42.032;-8.634;2024-03-17T10:28:39;22.73;;;14.63;;
61527;SDS011;47395;42.032;-8.634;2024-03-17T10:30:57;14.10;;;8.95;;
61527;SDS011;47395;42.032;-8.634;2024-03-17T10:33:00;8.13;;;7.25;;
61527;SDS011;47395;42.032;-8.634;2024-03-17T10:35:01;14.32;;;10.27;;
61527;SDS011;47395;42.032;-8.634;2024-03-17T10:37:17;7.55;;;6.75;;
61527;SDS011;47395;42.032;-8.634;2024-03-17T10:39:28;9.68;;;8.50;;
61527;SDS011;47395;42.032;-8.634;2024-03-17T10:41:29;10.20;;;7.45;;
61527;SDS011;47395;42.032;-8.634;2024-03-17T10:43:33;9.27;;;6.38;;
61527;SDS011;47395;42.032;-8.634;2024-03-17T10:45:36;8.27;;;6.75;;
61527;SDS011;47395;42.032;-8.634;2024-03-17T10:47:39;7.60;;;6.53;;
61527;SDS011;47395;42.032;-8.634;2024-03-17T10:49:44;6.72;;;6.13;;
61527;SDS011;47395;42.032;-8.634;2024-03-17T10:51:46;7.22;;;5.25;;
61527;SDS011;47395;42.032;-8.634;2024-03-17T10:53:52;8.35;;;4.88;;
61527;SDS011;47395;42.032;-8.634;2024-03-17T10:56:00;5.88;;;5.28;;
61527;SDS011;47395;42.032;-8.634;2024-03-17T10:58:23;6.63;;;5.63;;
61527;SDS011;47395;42.032;-8.634;2024-03-17T11:00:33;8.32;;;6.20;;
61527;SDS011;47395;42.032;-8.634;2024-03-17T11:02:35;6.57;;;5.97;;
61527;SDS011;47395;42.032;-8.634;2024-03-17T11:04:38;14.55;;;8.43;;
61527;SDS011;47395;42.032;-8.634;2024-03-17T11:06:39;7.00;;;4.72;;
61527;SDS011;47395;42.032;-8.634;2024-03-17T11:08:40;10.63;;;8.07;;
61527;SDS011;47395;42.032;-8.634;2024-03-17T11:10:48;11.38;;;7.43;;
61527;SDS011;47395;42.032;-8.634;2024-03-17T11:12:59;8.00;;;5.22;;
61527;SDS011;47395;42.032;-8.634;2024-03-17T11:17:40;6.70;;;5.07;;
61527;SDS011;47395;42.032;-8.634;2024-03-17T11:19:41;4.80;;;4.40;;
61527;SDS011;47395;42.032;-8.634;2024-03-17T11:21:42;6.45;;;4.68;;
61527;SDS011;47395;42.032;-8.634;2024-03-17T11:24:00;5.25;;;4.78;;
61527;SDS011;47395;42.032;-8.634;2024-03-17T11:26:02;11.10;;;4.95;;
61527;SDS011;47395;42.032;-8.634;2024-03-17T11:28:04;6.53;;;4.57;;
61527;SDS011;47395;42.032;-8.634;2024-03-17T11:35:47;7.22;;;4.55;;
61527;SDS011;47395;42.032;-8.634;2024-03-17T11:37:48;7.05;;;4.72;;
61527;SDS011;47395;42.032;-8.634;2024-03-17T11:39:52;7.47;;;5.30;;
61527;SDS011;47395;42.032;-8.634;2024-03-17T11:42:03;5.25;;;4.75;;
61527;SDS011;47395;42.032;-8.634;2024-03-17T11:46:26;5.63;;;5.13;;
61527;SDS011;47395;42.032;-8.634;2024-03-17T11:48:28;6.45;;;5.15;;
61527;SDS011;47395;42.032;-8.634;2024-03-17T11:50:29;6.47;;;5.07;;
61527;SDS011;47395;42.032;-8.634;2024-03-17T11:52:30;7.28;;;5.22;;
61527;SDS011;47395;42.032;-8.634;2024-03-17T11:54:32;8.00;;;5.47;;
61527;SDS011;47395;42.032;-8.634;2024-03-17T11:56:35;6.22;;;5.35;;
61527;SDS011;47395;42.032;-8.634;2024-03-17T11:58:36;6.43;;;5.05;;
61527;SDS011;47395;42.032;-8.634;2024-03-17T12:00:40;9.18;;;5.07;;
61527;SDS011;47395;42.032;-8.634;2024-03-17T12:02:41;7.13;;;5.53;;
61527;SDS011;47395;42.032;-8.634;2024-03-17T12:04:43;6.22;;;5.03;;